sensor_id;sensor_type;location;lat;lon;timestamp;temperature;humidity
45491;DHT22;31237;45.586;13.782;2023-07-31T00:00:11;22.70;84.40
45491;DHT22;31237;45.586;13.782;2023-07-31T00:02:37;22.70;84.50
45491;DHT22;31237;45.586;13.782;2023-07-31T00:05:04;22.70;84.60
45491;DHT22;31237;45.586;13.782;2023-07-31T00:07:30;22.60;84.70
45491;DHT22;31237;45.586;13.782;2023-07-31T00:09:55;22.60;84.90
45491;DHT22;31237;45.586;13.782;2023-07-31T00:12:22;22.60;85.10
45491;DHT22;31237;45.586;13.782;2023-07-31T00:14:48;22.50;85.10
45491;DHT22;31237;45.586;13.782;2023-07-31T00:17:14;22.50;85.30
45491;DHT22;31237;45.586;13.782;2023-07-31T00:19:40;22.50;85.40
45491;DHT22;31237;45.586;13.782;2023-07-31T00:22:06;22.50;85.50
45491;DHT22;31237;45.586;13.782;2023-07-31T00:24:31;22.50;85.60
45491;DHT22;31237;45.586;13.782;2023-07-31T00:26:57;22.50;85.60
45491;DHT22;31237;45.586;13.782;2023-07-31T00:29:23;22.50;85.70
45491;DHT22;31237;45.586;13.782;2023-07-31T00:31:48;22.50;85.70
45491;DHT22;31237;45.586;13.782;2023-07-31T00:34:14;22.50;85.80
45491;DHT22;31237;45.586;13.782;2023-07-31T00:36:40;22.40;85.90
45491;DHT22;31237;45.586;13.782;2023-07-31T00:39:05;22.40;86.10
45491;DHT22;31237;45.586;13.782;2023-07-31T00:41:35;22.30;86.10
45491;DHT22;31237;45.586;13.782;2023-07-31T00:44:01;22.30;86.30
45491;DHT22;31237;45.586;13.782;2023-07-31T00:46:26;22.30;86.40
45491;DHT22;31237;45.586;13.782;2023-07-31T00:48:52;22.20;86.60
45491;DHT22;31237;45.586;13.782;2023-07-31T00:51:18;22.20;86.80
45491;DHT22;31237;45.586;13.782;2023-07-31T00:53:44;22.10;86.90
45491;DHT22;31237;45.586;13.782;2023-07-31T00:56:11;22.10;87.10
45491;DHT22;31237;45.586;13.782;2023-07-31T00:58:37;22.10;87.20
45491;DHT22;31237;45.586;13.782;2023-07-31T01:01:03;22.00;87.20
45491;DHT22;31237;45.586;13.782;2023-07-31T01:03:28;22.00;87.30
45491;DHT22;31237;45.586;13.782;2023-07-31T01:08:42;22.00;87.50
45491;DHT22;31237;45.586;13.782;2023-07-31T01:11:19;21.90;87.50
45491;DHT22;31237;45.586;13.782;2023-07-31T01:13:47;21.90;87.70
45491;DHT22;31237;45.586;13.782;2023-07-31T01:16:13;21.80;87.80
45491;DHT22;31237;45.586;13.782;2023-07-31T01:18:39;21.80;88.00
45491;DHT22;31237;45.586;13.782;2023-07-31T01:26:47;21.80;88.10
45491;DHT22;31237;45.586;13.782;2023-07-31T01:29:23;21.80;88.10
45491;DHT22;31237;45.586;13.782;2023-07-31T01:31:53;21.80;88.10
45491;DHT22;31237;45.586;13.782;2023-07-31T01:34:21;21.80;88.60
45491;DHT22;31237;45.586;13.782;2023-07-31T01:36:47;21.80;87.90
45491;DHT22;31237;45.586;13.782;2023-07-31T01:39:13;21.80;87.80
45491;DHT22;31237;45.586;13.782;2023-07-31T01:41:41;21.80;87.60
45491;DHT22;31237;45.586;13.782;2023-07-31T01:44:06;21.80;87.60
45491;DHT22;31237;45.586;13.782;2023-07-31T01:46:32;21.80;87.50
45491;DHT22;31237;45.586;13.782;2023-07-31T01:48:58;21.80;87.50
45491;DHT22;31237;45.586;13.782;2023-07-31T01:51:24;21.80;87.50
45491;DHT22;31237;45.586;13.782;2023-07-31T01:53:49;21.80;87.30
45491;DHT22;31237;45.586;13.782;2023-07-31T01:56:15;21.80;87.20
45491;DHT22;31237;45.586;13.782;2023-07-31T01:58:41;21.80;87.10
45491;DHT22;31237;45.586;13.782;2023-07-31T02:01:06;21.90;87.20
45491;DHT22;31237;45.586;13.782;2023-07-31T02:03:32;21.90;87.10
45491;DHT22;31237;45.586;13.782;2023-07-31T02:05:58;21.80;87.00
45491;DHT22;31237;45.586;13.782;2023-07-31T02:08:23;21.80;87.00
45491;DHT22;31237;45.586;13.782;2023-07-31T02:10:49;21.80;87.20
45491;DHT22;31237;45.586;13.782;2023-07-31T02:13:15;21.80;87.30
45491;DHT22;31237;45.586;13.782;2023-07-31T02:15:40;21.80;87.30
45491;DHT22;31237;45.586;13.782;2023-07-31T02:18:06;21.80;87.30
45491;DHT22;31237;45.586;13.782;2023-07-31T02:20:35;21.80;87.30
45491;DHT22;31237;45.586;13.782;2023-07-31T02:23:01;21.70;87.30
45491;DHT22;31237;45.586;13.782;2023-07-31T02:25:26;21.70;87.40
45491;DHT22;31237;45.586;13.782;2023-07-31T02:27:52;21.70;87.50
45491;DHT22;31237;45.586;13.782;2023-07-31T02:30:18;21.60;87.60
45491;DHT22;31237;45.586;13.782;2023-07-31T02:32:43;21.60;87.70
45491;DHT22;31237;45.586;13.782;2023-07-31T02:35:10;21.50;87.90
45491;DHT22;31237;45.586;13.782;2023-07-31T02:37:36;21.50;88.10
45491;DHT22;31237;45.586;13.782;2023-07-31T02:40:03;21.50;88.30
45491;DHT22;31237;45.586;13.782;2023-07-31T02:42:29;21.40;88.30
45491;DHT22;31237;45.586;13.782;2023-07-31T02:44:55;21.40;88.40
45491;DHT22;31237;45.586;13.782;2023-07-31T02:47:22;21.40;88.50
45491;DHT22;31237;45.586;13.782;2023-07-31T02:49:48;21.40;88.70
45491;DHT22;31237;45.586;13.782;2023-07-31T02:52:13;21.40;88.80
45491;DHT22;31237;45.586;13.782;2023-07-31T02:54:39;21.40;88.90
45491;DHT22;31237;45.586;13.782;2023-07-31T02:57:05;21.40;89.00
45491;DHT22;31237;45.586;13.782;2023-07-31T02:59:31;21.40;88.90
45491;DHT22;31237;45.586;13.782;2023-07-31T03:01:56;21.40;89.00
45491;DHT22;31237;45.586;13.782;2023-07-31T03:04:22;21.40;89.00
45491;DHT22;31237;45.586;13.782;2023-07-31T03:06:48;21.40;89.10
45491;DHT22;31237;45.586;13.782;2023-07-31T03:09:13;21.30;89.10
45491;DHT22;31237;45.586;13.782;2023-07-31T03:11:39;21.30;89.20
45491;DHT22;31237;45.586;13.782;2023-07-31T03:14:05;21.30;89.30
45491;DHT22;31237;45.586;13.782;2023-07-31T03:16:30;21.30;89.30
45491;DHT22;31237;45.586;13.782;2023-07-31T03:18:56;21.30;89.40
45491;DHT22;31237;45.586;13.782;2023-07-31T03:21:22;21.30;89.40
45491;DHT22;31237;45.586;13.782;2023-07-31T03:23:47;21.30;89.60
45491;DHT22;31237;45.586;13.782;2023-07-31T03:26:13;21.30;89.60
45491;DHT22;31237;45.586;13.782;2023-07-31T03:28:39;21.20;89.60
45491;DHT22;31237;45.586;13.782;2023-07-31T03:31:04;21.30;89.70
45491;DHT22;31237;45.586;13.782;2023-07-31T03:33:30;21.30;89.60
45491;DHT22;31237;45.586;13.782;2023-07-31T03:35:56;21.20;89.50
45491;DHT22;31237;45.586;13.782;2023-07-31T03:38:22;21.30;89.40
45491;DHT22;31237;45.586;13.782;2023-07-31T03:40:48;21.30;89.20
45491;DHT22;31237;45.586;13.782;2023-07-31T03:43:14;21.40;89.10
45491;DHT22;31237;45.586;13.782;2023-07-31T03:45:40;21.40;88.80
45491;DHT22;31237;45.586;13.782;2023-07-31T03:48:06;21.40;88.60
45491;DHT22;31237;45.586;13.782;2023-07-31T03:50:33;21.40;88.50
45491;DHT22;31237;45.586;13.782;2023-07-31T03:52:59;21.50;88.30
45491;DHT22;31237;45.586;13.782;2023-07-31T03:55:24;21.50;88.90
45491;DHT22;31237;45.586;13.782;2023-07-31T03:57:50;21.50;88.10
45491;DHT22;31237;45.586;13.782;2023-07-31T04:00:16;21.50;88.00
45491;DHT22;31237;45.586;13.782;2023-07-31T04:02:41;21.50;88.00
45491;DHT22;31237;45.586;13.782;2023-07-31T04:05:07;21.50;88.00
45491;DHT22;31237;45.586;13.782;2023-07-31T04:07:33;21.50;87.90
45491;DHT22;31237;45.586;13.782;2023-07-31T04:09:59;21.50;87.90
45491;DHT22;31237;45.586;13.782;2023-07-31T04:12:25;21.50;87.90
45491;DHT22;31237;45.586;13.782;2023-07-31T04:14:51;21.50;87.90
45491;DHT22;31237;45.586;13.782;2023-07-31T04:17:20;21.50;87.80
45491;DHT22;31237;45.586;13.782;2023-07-31T04:19:45;21.50;87.80
45491;DHT22;31237;45.586;13.782;2023-07-31T04:22:11;21.50;87.80
45491;DHT22;31237;45.586;13.782;2023-07-31T04:24:37;21.50;87.70
45491;DHT22;31237;45.586;13.782;2023-07-31T04:27:02;21.50;87.70
45491;DHT22;31237;45.586;13.782;2023-07-31T04:29:28;21.50;87.60
45491;DHT22;31237;45.586;13.782;2023-07-31T04:31:54;21.60;87.50
45491;DHT22;31237;45.586;13.782;2023-07-31T04:34:20;21.60;87.50
45491;DHT22;31237;45.586;13.782;2023-07-31T04:36:45;21.60;87.40
45491;DHT22;31237;45.586;13.782;2023-07-31T04:39:11;21.60;87.20
45491;DHT22;31237;45.586;13.782;2023-07-31T04:41:36;21.60;87.00
45491;DHT22;31237;45.586;13.782;2023-07-31T04:44:02;21.60;86.80
45491;DHT22;31237;45.586;13.782;2023-07-31T04:46:29;21.70;86.70
45491;DHT22;31237;45.586;13.782;2023-07-31T04:48:55;21.70;86.50
45491;DHT22;31237;45.586;13.782;2023-07-31T04:51:21;21.70;86.90
45491;DHT22;31237;45.586;13.782;2023-07-31T04:53:46;21.80;86.10
45491;DHT22;31237;45.586;13.782;2023-07-31T04:56:12;21.80;86.00
45491;DHT22;31237;45.586;13.782;2023-07-31T04:58:38;21.80;85.70
45491;DHT22;31237;45.586;13.782;2023-07-31T05:01:03;21.90;85.50
45491;DHT22;31237;45.586;13.782;2023-07-31T05:03:29;21.90;85.20
45491;DHT22;31237;45.586;13.782;2023-07-31T05:05:55;22.00;85.10
45491;DHT22;31237;45.586;13.782;2023-07-31T05:08:20;22.00;84.80
45491;DHT22;31237;45.586;13.782;2023-07-31T05:10:46;22.00;84.70
45491;DHT22;31237;45.586;13.782;2023-07-31T05:13:12;22.10;84.50
45491;DHT22;31237;45.586;13.782;2023-07-31T05:15:38;22.10;84.30
45491;DHT22;31237;45.586;13.782;2023-07-31T05:18:03;22.10;84.10
45491;DHT22;31237;45.586;13.782;2023-07-31T05:20:29;22.20;84.00
45491;DHT22;31237;45.586;13.782;2023-07-31T05:22:55;22.20;83.80
45491;DHT22;31237;45.586;13.782;2023-07-31T05:25:20;22.30;83.70
45491;DHT22;31237;45.586;13.782;2023-07-31T05:27:46;22.30;83.60
45491;DHT22;31237;45.586;13.782;2023-07-31T05:30:12;22.40;83.50
45491;DHT22;31237;45.586;13.782;2023-07-31T05:32:37;22.40;83.40
45491;DHT22;31237;45.586;13.782;2023-07-31T05:35:03;22.50;83.30
45491;DHT22;31237;45.586;13.782;2023-07-31T05:37:29;22.50;83.00
45491;DHT22;31237;45.586;13.782;2023-07-31T05:39:55;22.60;82.80
45491;DHT22;31237;45.586;13.782;2023-07-31T05:42:21;22.60;82.60
45491;DHT22;31237;45.586;13.782;2023-07-31T05:44:46;22.70;82.50
45491;DHT22;31237;45.586;13.782;2023-07-31T05:47:12;22.80;82.50
45491;DHT22;31237;45.586;13.782;2023-07-31T05:49:38;22.80;82.30
45491;DHT22;31237;45.586;13.782;2023-07-31T05:52:04;22.90;82.30
45491;DHT22;31237;45.586;13.782;2023-07-31T05:54:32;22.90;82.10
45491;DHT22;31237;45.586;13.782;2023-07-31T05:56:58;23.00;81.90
45491;DHT22;31237;45.586;13.782;2023-07-31T05:59:23;23.10;81.70
45491;DHT22;31237;45.586;13.782;2023-07-31T06:01:49;23.10;81.50
45491;DHT22;31237;45.586;13.782;2023-07-31T06:04:15;23.20;81.30
45491;DHT22;31237;45.586;13.782;2023-07-31T06:06:40;23.20;81.20
45491;DHT22;31237;45.586;13.782;2023-07-31T06:09:06;23.30;81.10
45491;DHT22;31237;45.586;13.782;2023-07-31T06:11:32;23.40;81.10
45491;DHT22;31237;45.586;13.782;2023-07-31T06:13:58;23.50;81.00
45491;DHT22;31237;45.586;13.782;2023-07-31T06:16:25;23.60;81.50
45491;DHT22;31237;45.586;13.782;2023-07-31T06:18:51;23.70;80.60
45491;DHT22;31237;45.586;13.782;2023-07-31T06:21:17;23.70;80.10
45491;DHT22;31237;45.586;13.782;2023-07-31T06:23:42;23.90;79.80
45491;DHT22;31237;45.586;13.782;2023-07-31T06:26:08;23.90;79.40
45491;DHT22;31237;45.586;13.782;2023-07-31T06:28:34;24.00;79.30
45491;DHT22;31237;45.586;13.782;2023-07-31T06:31:00;24.10;79.20
45491;DHT22;31237;45.586;13.782;2023-07-31T06:33:27;24.20;79.20
45491;DHT22;31237;45.586;13.782;2023-07-31T06:35:53;24.30;79.00
45491;DHT22;31237;45.586;13.782;2023-07-31T06:38:26;24.40;78.80
45491;DHT22;31237;45.586;13.782;2023-07-31T06:40:52;24.50;78.70
45491;DHT22;31237;45.586;13.782;2023-07-31T06:43:18;24.60;78.50
45491;DHT22;31237;45.586;13.782;2023-07-31T06:45:44;24.70;78.20
45491;DHT22;31237;45.586;13.782;2023-07-31T06:48:11;24.80;77.90
45491;DHT22;31237;45.586;13.782;2023-07-31T06:50:36;24.80;77.60
45491;DHT22;31237;45.586;13.782;2023-07-31T06:53:02;24.90;77.70
45491;DHT22;31237;45.586;13.782;2023-07-31T06:55:28;25.00;77.50
45491;DHT22;31237;45.586;13.782;2023-07-31T06:57:55;25.10;77.30
45491;DHT22;31237;45.586;13.782;2023-07-31T07:00:22;25.20;77.30
45491;DHT22;31237;45.586;13.782;2023-07-31T07:02:48;25.30;77.20
45491;DHT22;31237;45.586;13.782;2023-07-31T07:05:16;25.30;77.00
45491;DHT22;31237;45.586;13.782;2023-07-31T07:07:42;25.50;76.90
45491;DHT22;31237;45.586;13.782;2023-07-31T07:10:08;25.50;76.90
45491;DHT22;31237;45.586;13.782;2023-07-31T07:12:34;25.70;76.60
45491;DHT22;31237;45.586;13.782;2023-07-31T07:15:00;25.80;76.30
45491;DHT22;31237;45.586;13.782;2023-07-31T07:17:27;25.90;75.90
45491;DHT22;31237;45.586;13.782;2023-07-31T07:19:53;26.00;75.80
45491;DHT22;31237;45.586;13.782;2023-07-31T07:22:19;26.00;75.40
45491;DHT22;31237;45.586;13.782;2023-07-31T07:24:44;26.10;75.00
45491;DHT22;31237;45.586;13.782;2023-07-31T07:27:11;26.20;75.00
45491;DHT22;31237;45.586;13.782;2023-07-31T07:29:38;26.30;74.90
45491;DHT22;31237;45.586;13.782;2023-07-31T07:32:04;26.50;75.00
45491;DHT22;31237;45.586;13.782;2023-07-31T07:34:30;26.50;74.80
45491;DHT22;31237;45.586;13.782;2023-07-31T07:36:56;26.70;74.80
45491;DHT22;31237;45.586;13.782;2023-07-31T07:39:21;26.80;74.80
45491;DHT22;31237;45.586;13.782;2023-07-31T07:41:48;26.90;74.50
45491;DHT22;31237;45.586;13.782;2023-07-31T07:44:15;27.00;74.20
45491;DHT22;31237;45.586;13.782;2023-07-31T07:46:42;27.20;74.10
45491;DHT22;31237;45.586;13.782;2023-07-31T07:49:07;27.30;73.70
45491;DHT22;31237;45.586;13.782;2023-07-31T07:51:33;27.40;73.10
45491;DHT22;31237;45.586;13.782;2023-07-31T07:53:59;27.50;72.80
45491;DHT22;31237;45.586;13.782;2023-07-31T07:56:28;27.60;72.90
45491;DHT22;31237;45.586;13.782;2023-07-31T07:58:54;27.70;72.30
45491;DHT22;31237;45.586;13.782;2023-07-31T08:01:20;27.80;72.10
45491;DHT22;31237;45.586;13.782;2023-07-31T08:03:46;27.90;72.00
45491;DHT22;31237;45.586;13.782;2023-07-31T08:06:12;28.00;71.00
45491;DHT22;31237;45.586;13.782;2023-07-31T08:08:38;28.10;71.00
45491;DHT22;31237;45.586;13.782;2023-07-31T08:11:04;28.10;70.70
45491;DHT22;31237;45.586;13.782;2023-07-31T08:13:30;28.30;70.60
45491;DHT22;31237;45.586;13.782;2023-07-31T08:15:56;28.40;70.50
45491;DHT22;31237;45.586;13.782;2023-07-31T08:18:21;28.50;70.60
45491;DHT22;31237;45.586;13.782;2023-07-31T08:20:47;28.70;70.80
45491;DHT22;31237;45.586;13.782;2023-07-31T08:23:13;28.80;70.10
45491;DHT22;31237;45.586;13.782;2023-07-31T08:25:39;28.90;70.00
45491;DHT22;31237;45.586;13.782;2023-07-31T08:28:06;29.00;70.30
45491;DHT22;31237;45.586;13.782;2023-07-31T08:30:32;29.10;70.00
45491;DHT22;31237;45.586;13.782;2023-07-31T08:33:01;29.20;69.60
45491;DHT22;31237;45.586;13.782;2023-07-31T08:35:27;29.20;69.00
45491;DHT22;31237;45.586;13.782;2023-07-31T08:37:55;29.30;69.00
45491;DHT22;31237;45.586;13.782;2023-07-31T08:40:21;29.40;69.00
45491;DHT22;31237;45.586;13.782;2023-07-31T08:42:49;29.50;68.90
45491;DHT22;31237;45.586;13.782;2023-07-31T08:45:17;29.60;68.20
45491;DHT22;31237;45.586;13.782;2023-07-31T08:47:45;29.70;67.90
45491;DHT22;31237;45.586;13.782;2023-07-31T08:50:16;29.70;67.60
45491;DHT22;31237;45.586;13.782;2023-07-31T08:52:41;29.70;67.30
45491;DHT22;31237;45.586;13.782;2023-07-31T08:55:08;29.70;67.60
45491;DHT22;31237;45.586;13.782;2023-07-31T08:57:38;29.80;67.60
45491;DHT22;31237;45.586;13.782;2023-07-31T09:00:05;29.80;67.20
45491;DHT22;31237;45.586;13.782;2023-07-31T09:02:53;29.90;67.20
45491;DHT22;31237;45.586;13.782;2023-07-31T09:05:20;30.00;67.50
45491;DHT22;31237;45.586;13.782;2023-07-31T09:07:47;30.10;66.80
45491;DHT22;31237;45.586;13.782;2023-07-31T09:10:15;30.10;66.40
45491;DHT22;31237;45.586;13.782;2023-07-31T09:12:41;30.20;66.50
45491;DHT22;31237;45.586;13.782;2023-07-31T09:15:07;30.30;65.90
45491;DHT22;31237;45.586;13.782;2023-07-31T09:17:35;30.30;65.60
45491;DHT22;31237;45.586;13.782;2023-07-31T09:20:24;30.30;65.80
45491;DHT22;31237;45.586;13.782;2023-07-31T09:22:50;30.40;65.90
45491;DHT22;31237;45.586;13.782;2023-07-31T09:25:17;30.40;66.00
45491;DHT22;31237;45.586;13.782;2023-07-31T09:30:17;30.40;65.80
45491;DHT22;31237;45.586;13.782;2023-07-31T09:32:48;30.50;65.60
45491;DHT22;31237;45.586;13.782;2023-07-31T09:37:39;30.60;65.10
45491;DHT22;31237;45.586;13.782;2023-07-31T09:40:06;30.50;65.20
45491;DHT22;31237;45.586;13.782;2023-07-31T09:42:31;30.50;65.20
45491;DHT22;31237;45.586;13.782;2023-07-31T09:45:08;30.50;65.10
45491;DHT22;31237;45.586;13.782;2023-07-31T09:47:34;30.50;65.00
45491;DHT22;31237;45.586;13.782;2023-07-31T09:50:00;30.50;64.60
45491;DHT22;31237;45.586;13.782;2023-07-31T09:52:26;30.50;64.40
45491;DHT22;31237;45.586;13.782;2023-07-31T09:54:55;30.50;64.30
45491;DHT22;31237;45.586;13.782;2023-07-31T09:57:22;30.40;64.70
45491;DHT22;31237;45.586;13.782;2023-07-31T09:59:48;30.40;64.70
45491;DHT22;31237;45.586;13.782;2023-07-31T10:02:22;30.40;64.70
45491;DHT22;31237;45.586;13.782;2023-07-31T10:04:50;30.40;64.80
45491;DHT22;31237;45.586;13.782;2023-07-31T10:07:17;30.50;65.20
45491;DHT22;31237;45.586;13.782;2023-07-31T10:09:44;30.60;65.70
45491;DHT22;31237;45.586;13.782;2023-07-31T10:12:12;30.60;65.60
45491;DHT22;31237;45.586;13.782;2023-07-31T10:14:41;30.70;65.90
45491;DHT22;31237;45.586;13.782;2023-07-31T10:17:08;30.70;65.90
45491;DHT22;31237;45.586;13.782;2023-07-31T10:19:34;30.80;65.90
45491;DHT22;31237;45.586;13.782;2023-07-31T10:22:02;30.80;66.10
45491;DHT22;31237;45.586;13.782;2023-07-31T10:24:29;30.80;66.10
45491;DHT22;31237;45.586;13.782;2023-07-31T10:26:58;30.80;65.80
45491;DHT22;31237;45.586;13.782;2023-07-31T10:29:25;30.90;65.40
45491;DHT22;31237;45.586;13.782;2023-07-31T10:31:52;30.90;65.30
45491;DHT22;31237;45.586;13.782;2023-07-31T10:34:18;30.90;65.30
45491;DHT22;31237;45.586;13.782;2023-07-31T10:36:44;30.80;64.90
45491;DHT22;31237;45.586;13.782;2023-07-31T10:39:36;30.80;64.80
45491;DHT22;31237;45.586;13.782;2023-07-31T10:42:12;30.80;64.00
45491;DHT22;31237;45.586;13.782;2023-07-31T10:44:43;30.70;63.60
45491;DHT22;31237;45.586;13.782;2023-07-31T10:47:08;30.70;63.70
45491;DHT22;31237;45.586;13.782;2023-07-31T10:49:34;30.60;64.10
45491;DHT22;31237;45.586;13.782;2023-07-31T10:52:03;30.50;64.50
45491;DHT22;31237;45.586;13.782;2023-07-31T10:54:29;30.50;64.50
45491;DHT22;31237;45.586;13.782;2023-07-31T10:56:56;30.60;64.90
45491;DHT22;31237;45.586;13.782;2023-07-31T10:59:26;30.60;65.00
45491;DHT22;31237;45.586;13.782;2023-07-31T11:01:54;30.70;65.40
45491;DHT22;31237;45.586;13.782;2023-07-31T11:04:24;30.90;64.90
45491;DHT22;31237;45.586;13.782;2023-07-31T11:07:01;31.10;64.60
45491;DHT22;31237;45.586;13.782;2023-07-31T11:09:29;31.20;64.20
45491;DHT22;31237;45.586;13.782;2023-07-31T11:11:59;31.30;63.30
45491;DHT22;31237;45.586;13.782;2023-07-31T11:14:24;31.50;62.80
45491;DHT22;31237;45.586;13.782;2023-07-31T11:16:51;31.50;61.90
45491;DHT22;31237;45.586;13.782;2023-07-31T11:19:26;31.60;61.80
45491;DHT22;31237;45.586;13.782;2023-07-31T11:21:52;31.70;61.80
45491;DHT22;31237;45.586;13.782;2023-07-31T11:24:19;31.70;61.50
45491;DHT22;31237;45.586;13.782;2023-07-31T11:26:51;31.80;61.00
45491;DHT22;31237;45.586;13.782;2023-07-31T11:29:20;31.90;60.70
45491;DHT22;31237;45.586;13.782;2023-07-31T11:31:47;32.00;60.90
45491;DHT22;31237;45.586;13.782;2023-07-31T11:34:13;32.10;59.20
45491;DHT22;31237;45.586;13.782;2023-07-31T11:36:39;32.00;58.40
45491;DHT22;31237;45.586;13.782;2023-07-31T11:39:06;32.00;58.80
45491;DHT22;31237;45.586;13.782;2023-07-31T11:41:32;31.90;59.20
45491;DHT22;31237;45.586;13.782;2023-07-31T11:44:01;31.90;58.10
45491;DHT22;31237;45.586;13.782;2023-07-31T11:46:30;31.90;57.70
45491;DHT22;31237;45.586;13.782;2023-07-31T11:48:59;31.70;56.70
45491;DHT22;31237;45.586;13.782;2023-07-31T11:51:26;31.60;56.40
45491;DHT22;31237;45.586;13.782;2023-07-31T11:53:57;31.40;56.00
45491;DHT22;31237;45.586;13.782;2023-07-31T11:56:23;31.20;56.80
45491;DHT22;31237;45.586;13.782;2023-07-31T11:58:58;31.10;56.90
45491;DHT22;31237;45.586;13.782;2023-07-31T12:01:26;31.00;56.70
45491;DHT22;31237;45.586;13.782;2023-07-31T12:03:53;31.00;56.80
45491;DHT22;31237;45.586;13.782;2023-07-31T12:06:19;30.90;56.30
45491;DHT22;31237;45.586;13.782;2023-07-31T12:08:48;30.80;56.30
45491;DHT22;31237;45.586;13.782;2023-07-31T12:11:14;30.80;56.30
45491;DHT22;31237;45.586;13.782;2023-07-31T12:13:40;30.80;56.70
45491;DHT22;31237;45.586;13.782;2023-07-31T12:16:06;30.70;57.10
45491;DHT22;31237;45.586;13.782;2023-07-31T12:18:39;30.70;57.10
45491;DHT22;31237;45.586;13.782;2023-07-31T12:21:08;30.70;56.80
45491;DHT22;31237;45.586;13.782;2023-07-31T12:23:37;30.70;57.40
45491;DHT22;31237;45.586;13.782;2023-07-31T12:26:11;30.70;57.80
45491;DHT22;31237;45.586;13.782;2023-07-31T12:28:47;30.70;57.80
45491;DHT22;31237;45.586;13.782;2023-07-31T12:31:18;30.70;57.10
45491;DHT22;31237;45.586;13.782;2023-07-31T12:33:45;30.70;57.70
45491;DHT22;31237;45.586;13.782;2023-07-31T12:36:21;30.70;57.50
45491;DHT22;31237;45.586;13.782;2023-07-31T12:38:47;30.80;57.50
45491;DHT22;31237;45.586;13.782;2023-07-31T12:41:13;30.80;57.40
45491;DHT22;31237;45.586;13.782;2023-07-31T12:43:41;30.80;57.30
45491;DHT22;31237;45.586;13.782;2023-07-31T12:46:11;30.80;57.10
45491;DHT22;31237;45.586;13.782;2023-07-31T12:48:37;30.80;57.40
45491;DHT22;31237;45.586;13.782;2023-07-31T12:51:04;30.90;58.70
45491;DHT22;31237;45.586;13.782;2023-07-31T12:53:29;30.90;58.40
45491;DHT22;31237;45.586;13.782;2023-07-31T12:55:56;30.90;56.70
45491;DHT22;31237;45.586;13.782;2023-07-31T12:58:22;30.90;56.80
45491;DHT22;31237;45.586;13.782;2023-07-31T13:00:48;30.90;58.00
45491;DHT22;31237;45.586;13.782;2023-07-31T13:03:14;30.90;58.10
45491;DHT22;31237;45.586;13.782;2023-07-31T13:05:40;30.90;58.70
45491;DHT22;31237;45.586;13.782;2023-07-31T13:08:05;30.80;57.50
45491;DHT22;31237;45.586;13.782;2023-07-31T13:10:31;30.80;58.00
45491;DHT22;31237;45.586;13.782;2023-07-31T13:12:57;30.60;58.50
45491;DHT22;31237;45.586;13.782;2023-07-31T13:15:23;30.60;58.90
45491;DHT22;31237;45.586;13.782;2023-07-31T13:17:49;30.50;58.70
45491;DHT22;31237;45.586;13.782;2023-07-31T13:20:14;30.40;59.20
45491;DHT22;31237;45.586;13.782;2023-07-31T13:22:40;30.30;59.70
45491;DHT22;31237;45.586;13.782;2023-07-31T13:25:06;30.30;60.20
45491;DHT22;31237;45.586;13.782;2023-07-31T13:27:32;30.30;60.20
45491;DHT22;31237;45.586;13.782;2023-07-31T13:29:58;30.30;60.20
45491;DHT22;31237;45.586;13.782;2023-07-31T13:32:24;30.20;60.20
45491;DHT22;31237;45.586;13.782;2023-07-31T13:34:50;30.00;59.90
45491;DHT22;31237;45.586;13.782;2023-07-31T13:37:16;29.90;59.70
45491;DHT22;31237;45.586;13.782;2023-07-31T13:39:42;29.70;59.30
45491;DHT22;31237;45.586;13.782;2023-07-31T13:42:08;29.60;59.30
45491;DHT22;31237;45.586;13.782;2023-07-31T13:44:43;29.50;58.50
45491;DHT22;31237;45.586;13.782;2023-07-31T13:47:09;29.50;58.70
45491;DHT22;31237;45.586;13.782;2023-07-31T13:49:35;29.50;58.90
45491;DHT22;31237;45.586;13.782;2023-07-31T13:52:02;29.50;59.10
45491;DHT22;31237;45.586;13.782;2023-07-31T13:54:28;29.50;59.40
45491;DHT22;31237;45.586;13.782;2023-07-31T13:56:53;29.50;59.50
45491;DHT22;31237;45.586;13.782;2023-07-31T13:59:20;29.50;59.20
45491;DHT22;31237;45.586;13.782;2023-07-31T14:01:46;29.50;59.40
45491;DHT22;31237;45.586;13.782;2023-07-31T14:04:12;29.50;60.00
45491;DHT22;31237;45.586;13.782;2023-07-31T14:06:37;29.50;60.00
45491;DHT22;31237;45.586;13.782;2023-07-31T14:09:03;29.50;59.30
45491;DHT22;31237;45.586;13.782;2023-07-31T14:11:31;29.50;59.20
45491;DHT22;31237;45.586;13.782;2023-07-31T14:13:57;29.60;59.20
45491;DHT22;31237;45.586;13.782;2023-07-31T14:16:23;29.50;59.30
45491;DHT22;31237;45.586;13.782;2023-07-31T14:18:49;29.50;59.80
45491;DHT22;31237;45.586;13.782;2023-07-31T14:21:14;29.50;59.10
45491;DHT22;31237;45.586;13.782;2023-07-31T14:23:41;29.50;58.90
45491;DHT22;31237;45.586;13.782;2023-07-31T14:26:07;29.50;58.80
45491;DHT22;31237;45.586;13.782;2023-07-31T14:28:33;29.50;59.00
45491;DHT22;31237;45.586;13.782;2023-07-31T14:30:59;29.40;59.10
45491;DHT22;31237;45.586;13.782;2023-07-31T14:33:24;29.40;59.20
45491;DHT22;31237;45.586;13.782;2023-07-31T14:35:50;29.40;59.60
45491;DHT22;31237;45.586;13.782;2023-07-31T14:38:16;29.40;59.50
45491;DHT22;31237;45.586;13.782;2023-07-31T14:40:41;29.40;59.50
45491;DHT22;31237;45.586;13.782;2023-07-31T14:43:07;29.40;60.00
45491;DHT22;31237;45.586;13.782;2023-07-31T14:45:33;29.40;60.40
45491;DHT22;31237;45.586;13.782;2023-07-31T14:47:59;29.40;60.80
45491;DHT22;31237;45.586;13.782;2023-07-31T14:50:25;29.40;60.80
45491;DHT22;31237;45.586;13.782;2023-07-31T14:52:51;29.30;60.80
45491;DHT22;31237;45.586;13.782;2023-07-31T14:55:18;29.30;60.30
45491;DHT22;31237;45.586;13.782;2023-07-31T14:57:44;29.30;60.10
45491;DHT22;31237;45.586;13.782;2023-07-31T15:00:09;29.20;60.20
45491;DHT22;31237;45.586;13.782;2023-07-31T15:02:39;29.20;59.90
45491;DHT22;31237;45.586;13.782;2023-07-31T15:05:05;29.20;59.70
45491;DHT22;31237;45.586;13.782;2023-07-31T15:07:32;29.10;59.10
45491;DHT22;31237;45.586;13.782;2023-07-31T15:09:58;29.10;59.30
45491;DHT22;31237;45.586;13.782;2023-07-31T15:12:24;29.10;59.10
45491;DHT22;31237;45.586;13.782;2023-07-31T15:14:50;29.10;59.10
45491;DHT22;31237;45.586;13.782;2023-07-31T15:17:26;29.10;58.60
45491;DHT22;31237;45.586;13.782;2023-07-31T15:19:52;29.00;58.50
45491;DHT22;31237;45.586;13.782;2023-07-31T15:22:18;28.90;58.60
45491;DHT22;31237;45.586;13.782;2023-07-31T15:24:43;28.90;58.90